sensor_id;sensor_type;location;lat;lon;timestamp;P1;durP1;ratioP1;P2;durP2;ratioP2
64950;SDS011;51482;47.014;7.652;2022-07-29T00:02:21;5.90;;;5.30;;
64950;SDS011;51482;47.014;7.652;2022-07-29T00:04:47;5.65;;;5.15;;
64950;SDS011;51482;47.014;7.652;2022-07-29T00:07:12;6.53;;;5.18;;
64950;SDS011;51482;47.014;7.652;2022-07-29T00:09:38;5.40;;;5.00;;
64950;SDS011;51482;47.014;7.652;2022-07-29T00:12:03;5.70;;;5.18;;
64950;SDS011;51482;47.014;7.652;2022-07-29T00:14:29;6.30;;;5.40;;
64950;SDS011;51482;47.014;7.652;2022-07-29T00:16:55;5.65;;;5.15;;
64950;SDS011;51482;47.014;7.652;2022-07-29T00:19:20;6.05;;;5.15;;
64950;SDS011;51482;47.014;7.652;2022-07-29T00:21:46;6.45;;;4.95;;
64950;SDS011;51482;47.014;7.652;2022-07-29T00:24:12;6.65;;;5.15;;
64950;SDS011;51482;47.014;7.652;2022-07-29T00:26:37;6.70;;;5.38;;
64950;SDS011;51482;47.014;7.652;2022-07-29T00:29:03;7.45;;;5.53;;
64950;SDS011;51482;47.014;7.652;2022-07-29T00:31:29;5.70;;;5.05;;
64950;SDS011;51482;47.014;7.652;2022-07-29T00:33:55;6.07;;;4.68;;
64950;SDS011;51482;47.014;7.652;2022-07-29T00:36:21;7.47;;;5.55;;
64950;SDS011;51482;47.014;7.652;2022-07-29T00:38:50;6.05;;;5.47;;
64950;SDS011;51482;47.014;7.652;2022-07-29T00:41:16;6.30;;;5.07;;
64950;SDS011;51482;47.014;7.652;2022-07-29T00:43:43;8.65;;;5.63;;
64950;SDS011;51482;47.014;7.652;2022-07-29T00:46:08;5.90;;;5.32;;
64950;SDS011;51482;47.014;7.652;2022-07-29T00:48:35;5.72;;;4.97;;
64950;SDS011;51482;47.014;7.652;2022-07-29T00:51:01;7.35;;;5.70;;
64950;SDS011;51482;47.014;7.652;2022-07-29T00:53:29;6.57;;;4.90;;
64950;SDS011;51482;47.014;7.652;2022-07-29T00:55:56;6.47;;;5.18;;
64950;SDS011;51482;47.014;7.652;2022-07-29T00:58:22;5.55;;;5.05;;
64950;SDS011;51482;47.014;7.652;2022-07-29T01:00:48;5.95;;;5.35;;
64950;SDS011;51482;47.014;7.652;2022-07-29T01:03:14;7.18;;;5.30;;
64950;SDS011;51482;47.014;7.652;2022-07-29T01:05:40;7.00;;;4.78;;
64950;SDS011;51482;47.014;7.652;2022-07-29T01:08:07;6.32;;;5.25;;
64950;SDS011;51482;47.014;7.652;2022-07-29T01:10:33;5.43;;;4.95;;
64950;SDS011;51482;47.014;7.652;2022-07-29T01:13:03;6.55;;;5.50;;
64950;SDS011;51482;47.014;7.652;2022-07-29T01:15:29;5.65;;;4.88;;
64950;SDS011;51482;47.014;7.652;2022-07-29T01:20:31;5.75;;;5.13;;
64950;SDS011;51482;47.014;7.652;2022-07-29T01:31:10;6.55;;;5.20;;
64950;SDS011;51482;47.014;7.652;2022-07-29T01:33:41;7.32;;;4.93;;
64950;SDS011;51482;47.014;7.652;2022-07-29T01:36:16;6.25;;;5.50;;
64950;SDS011;51482;47.014;7.652;2022-07-29T01:38:48;9.07;;;5.55;;
64950;SDS011;51482;47.014;7.652;2022-07-29T01:41:19;7.10;;;5.65;;
64950;SDS011;51482;47.014;7.652;2022-07-29T01:43:57;7.03;;;5.15;;
64950;SDS011;51482;47.014;7.652;2022-07-29T01:46:33;8.35;;;5.50;;
64950;SDS011;51482;47.014;7.652;2022-07-29T01:49:11;6.03;;;5.47;;
64950;SDS011;51482;47.014;7.652;2022-07-29T01:51:41;5.57;;;5.07;;
64950;SDS011;51482;47.014;7.652;2022-07-29T01:54:14;6.05;;;5.45;;
64950;SDS011;51482;47.014;7.652;2022-07-29T01:56:53;6.07;;;5.43;;
64950;SDS011;51482;47.014;7.652;2022-07-29T01:59:21;5.90;;;5.13;;
64950;SDS011;51482;47.014;7.652;2022-07-29T02:01:48;6.95;;;5.47;;
64950;SDS011;51482;47.014;7.652;2022-07-29T02:04:17;5.93;;;5.32;;
64950;SDS011;51482;47.014;7.652;2022-07-29T02:06:44;6.30;;;5.70;;
64950;SDS011;51482;47.014;7.652;2022-07-29T02:09:12;5.70;;;5.15;;
64950;SDS011;51482;47.014;7.652;2022-07-29T02:11:40;7.07;;;5.32;;
64950;SDS011;51482;47.014;7.652;2022-07-29T02:14:14;5.85;;;4.97;;
64950;SDS011;51482;47.014;7.652;2022-07-29T02:16:42;5.95;;;5.45;;
64950;SDS011;51482;47.014;7.652;2022-07-29T02:19:10;5.47;;;4.97;;
64950;SDS011;51482;47.014;7.652;2022-07-29T02:21:37;6.28;;;5.45;;
64950;SDS011;51482;47.014;7.652;2022-07-29T02:24:04;5.85;;;5.28;;
64950;SDS011;51482;47.014;7.652;2022-07-29T02:26:30;5.63;;;5.00;;
64950;SDS011;51482;47.014;7.652;2022-07-29T02:28:58;5.45;;;4.95;;
64950;SDS011;51482;47.014;7.652;2022-07-29T02:31:25;8.27;;;5.95;;
64950;SDS011;51482;47.014;7.652;2022-07-29T02:33:54;7.43;;;5.70;;
64950;SDS011;51482;47.014;7.652;2022-07-29T02:36:22;8.77;;;5.60;;
64950;SDS011;51482;47.014;7.652;2022-07-29T02:38:49;5.60;;;5.10;;
64950;SDS011;51482;47.014;7.652;2022-07-29T02:41:17;5.95;;;5.45;;
64950;SDS011;51482;47.014;7.652;2022-07-29T02:43:55;7.80;;;6.07;;
64950;SDS011;51482;47.014;7.652;2022-07-29T02:46:25;6.55;;;5.78;;
64950;SDS011;51482;47.014;7.652;2022-07-29T02:48:58;6.00;;;5.40;;
64950;SDS011;51482;47.014;7.652;2022-07-29T02:51:32;5.95;;;5.38;;
64950;SDS011;51482;47.014;7.652;2022-07-29T02:54:06;6.47;;;5.50;;
64950;SDS011;51482;47.014;7.652;2022-07-29T02:56:33;6.82;;;5.35;;
64950;SDS011;51482;47.014;7.652;2022-07-29T02:59:01;6.80;;;5.47;;
64950;SDS011;51482;47.014;7.652;2022-07-29T03:01:31;6.00;;;5.43;;
64950;SDS011;51482;47.014;7.652;2022-07-29T03:03:59;5.95;;;5.35;;
64950;SDS011;51482;47.014;7.652;2022-07-29T03:06:27;5.43;;;4.93;;
64950;SDS011;51482;47.014;7.652;2022-07-29T03:08:55;7.38;;;5.38;;
64950;SDS011;51482;47.014;7.652;2022-07-29T03:11:23;6.22;;;5.53;;
64950;SDS011;51482;47.014;7.652;2022-07-29T03:13:50;7.43;;;5.38;;
64950;SDS011;51482;47.014;7.652;2022-07-29T03:16:16;5.75;;;5.25;;
64950;SDS011;51482;47.014;7.652;2022-07-29T03:18:44;16.98;;;7.03;;
64950;SDS011;51482;47.014;7.652;2022-07-29T03:21:10;10.65;;;6.55;;
64950;SDS011;51482;47.014;7.652;2022-07-29T03:23:35;8.93;;;6.35;;
64950;SDS011;51482;47.014;7.652;2022-07-29T03:26:01;9.13;;;6.13;;
64950;SDS011;51482;47.014;7.652;2022-07-29T03:28:27;5.97;;;5.43;;
64950;SDS011;51482;47.014;7.652;2022-07-29T03:30:52;6.50;;;5.90;;
64950;SDS011;51482;47.014;7.652;2022-07-29T03:33:18;6.38;;;5.68;;
64950;SDS011;51482;47.014;7.652;2022-07-29T03:35:44;6.45;;;5.63;;
64950;SDS011;51482;47.014;7.652;2022-07-29T03:38:10;6.38;;;5.60;;
64950;SDS011;51482;47.014;7.652;2022-07-29T03:40:38;6.28;;;5.25;;
64950;SDS011;51482;47.014;7.652;2022-07-29T03:43:13;6.90;;;5.30;;
64950;SDS011;51482;47.014;7.652;2022-07-29T03:45:43;7.10;;;5.63;;
64950;SDS011;51482;47.014;7.652;2022-07-29T03:48:12;6.30;;;5.70;;
64950;SDS011;51482;47.014;7.652;2022-07-29T03:50:41;6.72;;;5.72;;
64950;SDS011;51482;47.014;7.652;2022-07-29T03:53:07;8.23;;;6.22;;
64950;SDS011;51482;47.014;7.652;2022-07-29T03:55:34;7.25;;;5.45;;
64950;SDS011;51482;47.014;7.652;2022-07-29T03:58:05;5.85;;;5.35;;
64950;SDS011;51482;47.014;7.652;2022-07-29T04:00:33;6.38;;;5.78;;
64950;SDS011;51482;47.014;7.652;2022-07-29T04:02:59;7.57;;;5.40;;
64950;SDS011;51482;47.014;7.652;2022-07-29T04:05:25;6.65;;;5.97;;
64950;SDS011;51482;47.014;7.652;2022-07-29T04:07:50;6.20;;;5.68;;
64950;SDS011;51482;47.014;7.652;2022-07-29T04:10:16;6.60;;;6.00;;
64950;SDS011;51482;47.014;7.652;2022-07-29T04:12:42;5.78;;;5.28;;
64950;SDS011;51482;47.014;7.652;2022-07-29T04:15:08;6.03;;;5.43;;
64950;SDS011;51482;47.014;7.652;2022-07-29T04:17:34;5.70;;;5.20;;
64950;SDS011;51482;47.014;7.652;2022-07-29T04:19:59;6.78;;;6.18;;
64950;SDS011;51482;47.014;7.652;2022-07-29T04:22:25;7.45;;;6.03;;
64950;SDS011;51482;47.014;7.652;2022-07-29T04:24:51;6.80;;;6.20;;
64950;SDS011;51482;47.014;7.652;2022-07-29T04:27:16;8.48;;;6.15;;
64950;SDS011;51482;47.014;7.652;2022-07-29T04:29:42;7.15;;;5.75;;
64950;SDS011;51482;47.014;7.652;2022-07-29T04:32:07;5.97;;;5.38;;
64950;SDS011;51482;47.014;7.652;2022-07-29T04:34:33;5.63;;;5.13;;
64950;SDS011;51482;47.014;7.652;2022-07-29T04:36:58;6.68;;;6.07;;
64950;SDS011;51482;47.014;7.652;2022-07-29T04:39:24;5.82;;;5.18;;
64950;SDS011;51482;47.014;7.652;2022-07-29T04:41:50;6.32;;;5.43;;
64950;SDS011;51482;47.014;7.652;2022-07-29T04:44:15;5.97;;;5.47;;
64950;SDS011;51482;47.014;7.652;2022-07-29T04:46:41;6.65;;;5.65;;
64950;SDS011;51482;47.014;7.652;2022-07-29T04:49:06;6.80;;;5.32;;
64950;SDS011;51482;47.014;7.652;2022-07-29T04:51:32;5.57;;;5.07;;
64950;SDS011;51482;47.014;7.652;2022-07-29T04:53:58;6.47;;;5.45;;
64950;SDS011;51482;47.014;7.652;2022-07-29T04:56:24;6.10;;;5.50;;
64950;SDS011;51482;47.014;7.652;2022-07-29T04:58:49;6.38;;;5.70;;
64950;SDS011;51482;47.014;7.652;2022-07-29T05:01:15;7.65;;;5.70;;
64950;SDS011;51482;47.014;7.652;2022-07-29T05:03:41;5.75;;;5.22;;
64950;SDS011;51482;47.014;7.652;2022-07-29T05:06:06;6.75;;;5.35;;
64950;SDS011;51482;47.014;7.652;2022-07-29T05:08:32;6.35;;;5.78;;
64950;SDS011;51482;47.014;7.652;2022-07-29T05:10:57;8.50;;;6.13;;
64950;SDS011;51482;47.014;7.652;2022-07-29T05:13:23;6.72;;;5.63;;
64950;SDS011;51482;47.014;7.652;2022-07-29T05:15:48;6.50;;;5.90;;
64950;SDS011;51482;47.014;7.652;2022-07-29T05:18:14;7.15;;;6.45;;
64950;SDS011;51482;47.014;7.652;2022-07-29T05:20:40;6.55;;;5.95;;
64950;SDS011;51482;47.014;7.652;2022-07-29T05:23:05;6.05;;;5.45;;
64950;SDS011;51482;47.014;7.652;2022-07-29T05:25:31;9.07;;;6.47;;
64950;SDS011;51482;47.014;7.652;2022-07-29T05:27:57;9.20;;;6.43;;
64950;SDS011;51482;47.014;7.652;2022-07-29T05:30:23;7.45;;;6.30;;
64950;SDS011;51482;47.014;7.652;2022-07-29T05:32:48;7.45;;;6.45;;
64950;SDS011;51482;47.014;7.652;2022-07-29T05:35:14;7.13;;;6.03;;
64950;SDS011;51482;47.014;7.652;2022-07-29T05:37:40;8.50;;;6.57;;
64950;SDS011;51482;47.014;7.652;2022-07-29T05:40:06;7.32;;;5.97;;
64950;SDS011;51482;47.014;7.652;2022-07-29T05:42:33;8.45;;;5.90;;
64950;SDS011;51482;47.014;7.652;2022-07-29T05:44:59;6.43;;;5.78;;
64950;SDS011;51482;47.014;7.652;2022-07-29T05:47:25;7.75;;;6.00;;
64950;SDS011;51482;47.014;7.652;2022-07-29T05:49:51;6.75;;;6.05;;
64950;SDS011;51482;47.014;7.652;2022-07-29T05:52:17;6.47;;;5.85;;
64950;SDS011;51482;47.014;7.652;2022-07-29T05:54:42;7.70;;;6.40;;
64950;SDS011;51482;47.014;7.652;2022-07-29T05:57:08;6.53;;;5.80;;
64950;SDS011;51482;47.014;7.652;2022-07-29T05:59:40;8.43;;;5.55;;
64950;SDS011;51482;47.014;7.652;2022-07-29T06:02:06;6.88;;;6.25;;
64950;SDS011;51482;47.014;7.652;2022-07-29T06:04:32;8.30;;;5.68;;
64950;SDS011;51482;47.014;7.652;2022-07-29T06:06:58;6.45;;;5.68;;
64950;SDS011;51482;47.014;7.652;2022-07-29T06:09:24;6.63;;;5.88;;
64950;SDS011;51482;47.014;7.652;2022-07-29T06:11:49;7.57;;;6.00;;
64950;SDS011;51482;47.014;7.652;2022-07-29T06:14:15;7.45;;;6.15;;
64950;SDS011;51482;47.014;7.652;2022-07-29T06:16:40;6.35;;;5.80;;
64950;SDS011;51482;47.014;7.652;2022-07-29T06:19:06;6.90;;;5.78;;
64950;SDS011;51482;47.014;7.652;2022-07-29T06:21:32;6.88;;;6.28;;
64950;SDS011;51482;47.014;7.652;2022-07-29T06:23:58;6.90;;;6.22;;
64950;SDS011;51482;47.014;7.652;2022-07-29T06:26:24;6.32;;;5.78;;
64950;SDS011;51482;47.014;7.652;2022-07-29T06:28:49;6.38;;;5.78;;
64950;SDS011;51482;47.014;7.652;2022-07-29T06:31:15;6.22;;;5.60;;
64950;SDS011;51482;47.014;7.652;2022-07-29T06:33:41;8.27;;;6.15;;
64950;SDS011;51482;47.014;7.652;2022-07-29T06:36:06;7.03;;;6.32;;
64950;SDS011;51482;47.014;7.652;2022-07-29T06:38:32;6.75;;;5.82;;
64950;SDS011;51482;47.014;7.652;2022-07-29T06:40:58;6.38;;;5.57;;
64950;SDS011;51482;47.014;7.652;2022-07-29T06:43:25;9.18;;;5.75;;
64950;SDS011;51482;47.014;7.652;2022-07-29T06:46:00;8.55;;;6.32;;
64950;SDS011;51482;47.014;7.652;2022-07-29T06:48:27;6.65;;;5.90;;
64950;SDS011;51482;47.014;7.652;2022-07-29T06:50:53;7.00;;;6.25;;
64950;SDS011;51482;47.014;7.652;2022-07-29T06:53:19;7.65;;;6.13;;
64950;SDS011;51482;47.014;7.652;2022-07-29T06:55:45;8.00;;;5.95;;
64950;SDS011;51482;47.014;7.652;2022-07-29T06:58:10;6.60;;;5.72;;
64950;SDS011;51482;47.014;7.652;2022-07-29T07:00:36;6.85;;;6.15;;
64950;SDS011;51482;47.014;7.652;2022-07-29T07:03:02;8.00;;;5.95;;
64950;SDS011;51482;47.014;7.652;2022-07-29T07:05:28;10.52;;;6.55;;
64950;SDS011;51482;47.014;7.652;2022-07-29T07:07:53;7.18;;;6.32;;
64950;SDS011;51482;47.014;7.652;2022-07-29T07:10:19;7.00;;;6.30;;
64950;SDS011;51482;47.014;7.652;2022-07-29T07:12:44;5.93;;;5.32;;
64950;SDS011;51482;47.014;7.652;2022-07-29T07:15:10;6.25;;;5.65;;
64950;SDS011;51482;47.014;7.652;2022-07-29T07:17:36;6.72;;;6.13;;
64950;SDS011;51482;47.014;7.652;2022-07-29T07:20:02;6.70;;;6.10;;
64950;SDS011;51482;47.014;7.652;2022-07-29T07:22:29;6.75;;;6.10;;
64950;SDS011;51482;47.014;7.652;2022-07-29T07:24:55;6.93;;;6.32;;
64950;SDS011;51482;47.014;7.652;2022-07-29T07:27:20;7.93;;;6.05;;
64950;SDS011;51482;47.014;7.652;2022-07-29T07:29:46;6.55;;;5.95;;
64950;SDS011;51482;47.014;7.652;2022-07-29T07:32:12;6.78;;;6.07;;
64950;SDS011;51482;47.014;7.652;2022-07-29T07:34:38;6.70;;;6.00;;
64950;SDS011;51482;47.014;7.652;2022-07-29T07:37:03;7.15;;;5.93;;
64950;SDS011;51482;47.014;7.652;2022-07-29T07:39:30;6.47;;;5.85;;
64950;SDS011;51482;47.014;7.652;2022-07-29T07:41:55;6.78;;;6.00;;
64950;SDS011;51482;47.014;7.652;2022-07-29T07:44:21;7.22;;;6.63;;
64950;SDS011;51482;47.014;7.652;2022-07-29T07:46:46;8.15;;;6.15;;
64950;SDS011;51482;47.014;7.652;2022-07-29T07:49:12;6.70;;;6.10;;
64950;SDS011;51482;47.014;7.652;2022-07-29T07:51:37;6.80;;;5.53;;
64950;SDS011;51482;47.014;7.652;2022-07-29T07:54:03;9.38;;;6.35;;
64950;SDS011;51482;47.014;7.652;2022-07-29T07:56:29;7.25;;;6.55;;
64950;SDS011;51482;47.014;7.652;2022-07-29T07:58:54;8.70;;;6.40;;
64950;SDS011;51482;47.014;7.652;2022-07-29T08:01:20;7.65;;;6.70;;
64950;SDS011;51482;47.014;7.652;2022-07-29T08:03:47;6.80;;;6.13;;
64950;SDS011;51482;47.014;7.652;2022-07-29T08:06:14;9.38;;;6.72;;
64950;SDS011;51482;47.014;7.652;2022-07-29T08:08:40;6.22;;;5.63;;
64950;SDS011;51482;47.014;7.652;2022-07-29T08:11:05;5.88;;;5.35;;
64950;SDS011;51482;47.014;7.652;2022-07-29T08:13:31;6.88;;;6.10;;
64950;SDS011;51482;47.014;7.652;2022-07-29T08:15:57;7.60;;;5.95;;
64950;SDS011;51482;47.014;7.652;2022-07-29T08:18:26;6.72;;;5.90;;
64950;SDS011;51482;47.014;7.652;2022-07-29T08:20:56;10.00;;;6.50;;
64950;SDS011;51482;47.014;7.652;2022-07-29T08:23:22;6.80;;;6.18;;
64950;SDS011;51482;47.014;7.652;2022-07-29T08:25:48;7.78;;;6.45;;
64950;SDS011;51482;47.014;7.652;2022-07-29T08:28:14;6.82;;;6.13;;
64950;SDS011;51482;47.014;7.652;2022-07-29T08:30:40;7.10;;;6.38;;
64950;SDS011;51482;47.014;7.652;2022-07-29T08:33:05;7.90;;;7.10;;
64950;SDS011;51482;47.014;7.652;2022-07-29T08:35:31;7.50;;;6.05;;
64950;SDS011;51482;47.014;7.652;2022-07-29T08:37:56;6.50;;;5.85;;
64950;SDS011;51482;47.014;7.652;2022-07-29T08:40:22;6.32;;;5.75;;
64950;SDS011;51482;47.014;7.652;2022-07-29T08:42:49;7.60;;;5.93;;
64950;SDS011;51482;47.014;7.652;2022-07-29T08:45:15;6.57;;;5.82;;
64950;SDS011;51482;47.014;7.652;2022-07-29T08:47:41;7.35;;;5.80;;
64950;SDS011;51482;47.014;7.652;2022-07-29T08:50:09;6.90;;;6.30;;
64950;SDS011;51482;47.014;7.652;2022-07-29T08:52:36;8.65;;;6.05;;
64950;SDS011;51482;47.014;7.652;2022-07-29T08:55:04;7.72;;;6.15;;
64950;SDS011;51482;47.014;7.652;2022-07-29T08:57:31;11.30;;;7.20;;
64950;SDS011;51482;47.014;7.652;2022-07-29T08:59:59;6.60;;;6.00;;
64950;SDS011;51482;47.014;7.652;2022-07-29T09:02:26;6.85;;;6.05;;
64950;SDS011;51482;47.014;7.652;2022-07-29T09:04:54;6.10;;;5.57;;
64950;SDS011;51482;47.014;7.652;2022-07-29T09:07:23;9.55;;;6.50;;
64950;SDS011;51482;47.014;7.652;2022-07-29T09:09:48;7.22;;;5.95;;
64950;SDS011;51482;47.014;7.652;2022-07-29T09:12:14;6.90;;;6.30;;
64950;SDS011;51482;47.014;7.652;2022-07-29T09:14:41;7.72;;;6.60;;
64950;SDS011;51482;47.014;7.652;2022-07-29T09:17:07;7.25;;;6.65;;
64950;SDS011;51482;47.014;7.652;2022-07-29T09:19:34;5.50;;;3.60;;
64950;SDS011;51482;47.014;7.652;2022-07-29T09:22:02;5.55;;;5.05;;
64950;SDS011;51482;47.014;7.652;2022-07-29T09:24:37;5.05;;;4.15;;
64950;SDS011;51482;47.014;7.652;2022-07-29T09:27:08;6.30;;;5.45;;
64950;SDS011;51482;47.014;7.652;2022-07-29T09:29:54;5.20;;;4.80;;
64950;SDS011;51482;47.014;7.652;2022-07-29T09:32:21;5.97;;;4.75;;
64950;SDS011;51482;47.014;7.652;2022-07-29T09:34:46;8.15;;;5.22;;
64950;SDS011;51482;47.014;7.652;2022-07-29T09:37:12;4.40;;;4.00;;
64950;SDS011;51482;47.014;7.652;2022-07-29T09:39:51;4.95;;;4.55;;
64950;SDS011;51482;47.014;7.652;2022-07-29T09:42:17;5.10;;;4.65;;
64950;SDS011;51482;47.014;7.652;2022-07-29T09:44:53;7.72;;;5.00;;
64950;SDS011;51482;47.014;7.652;2022-07-29T09:47:18;7.50;;;5.30;;
64950;SDS011;51482;47.014;7.652;2022-07-29T09:49:58;6.32;;;5.78;;
64950;SDS011;51482;47.014;7.652;2022-07-29T09:52:27;6.00;;;5.30;;
64950;SDS011;51482;47.014;7.652;2022-07-29T09:55:07;5.18;;;4.75;;
64950;SDS011;51482;47.014;7.652;2022-07-29T09:57:33;6.65;;;5.07;;
64950;SDS011;51482;47.014;7.652;2022-07-29T10:00:00;5.38;;;4.88;;
64950;SDS011;51482;47.014;7.652;2022-07-29T10:02:30;4.78;;;4.35;;
64950;SDS011;51482;47.014;7.652;2022-07-29T10:04:57;4.82;;;4.40;;
64950;SDS011;51482;47.014;7.652;2022-07-29T10:07:24;7.63;;;5.07;;
64950;SDS011;51482;47.014;7.652;2022-07-29T10:09:56;5.43;;;4.72;;
64950;SDS011;51482;47.014;7.652;2022-07-29T10:12:22;4.20;;;3.90;;
64950;SDS011;51482;47.014;7.652;2022-07-29T10:14:49;4.95;;;4.45;;
64950;SDS011;51482;47.014;7.652;2022-07-29T10:17:16;4.35;;;3.95;;
64950;SDS011;51482;47.014;7.652;2022-07-29T10:19:43;4.95;;;4.20;;
64950;SDS011;51482;47.014;7.652;2022-07-29T10:22:09;4.93;;;4.53;;
64950;SDS011;51482;47.014;7.652;2022-07-29T10:24:36;5.32;;;4.18;;
64950;SDS011;51482;47.014;7.652;2022-07-29T10:27:03;4.55;;;4.15;;
64950;SDS011;51482;47.014;7.652;2022-07-29T10:29:30;4.88;;;3.97;;
64950;SDS011;51482;47.014;7.652;2022-07-29T10:32:07;5.30;;;4.80;;
64950;SDS011;51482;47.014;7.652;2022-07-29T10:34:53;5.30;;;4.80;;
64950;SDS011;51482;47.014;7.652;2022-07-29T10:43:29;4.43;;;4.07;;
64950;SDS011;51482;47.014;7.652;2022-07-29T10:46:01;5.45;;;4.00;;
64950;SDS011;51482;47.014;7.652;2022-07-29T10:48:27;4.20;;;3.85;;
64950;SDS011;51482;47.014;7.652;2022-07-29T10:53:24;3.88;;;3.35;;
64950;SDS011;51482;47.014;7.652;2022-07-29T10:56:22;3.85;;;3.42;;
64950;SDS011;51482;47.014;7.652;2022-07-29T11:01:44;4.00;;;3.40;;
64950;SDS011;51482;47.014;7.652;2022-07-29T11:04:10;3.72;;;3.42;;
64950;SDS011;51482;47.014;7.652;2022-07-29T11:09:27;4.18;;;3.42;;
64950;SDS011;51482;47.014;7.652;2022-07-29T11:11:55;4.05;;;3.63;;
64950;SDS011;51482;47.014;7.652;2022-07-29T11:17:25;4.32;;;3.50;;
64950;SDS011;51482;47.014;7.652;2022-07-29T11:19:51;4.50;;;3.58;;
64950;SDS011;51482;47.014;7.652;2022-07-29T11:22:32;4.75;;;3.75;;
64950;SDS011;51482;47.014;7.652;2022-07-29T11:25:14;4.03;;;3.58;;
64950;SDS011;51482;47.014;7.652;2022-07-29T11:27:41;4.00;;;3.60;;
64950;SDS011;51482;47.014;7.652;2022-07-29T11:30:07;8.43;;;3.60;;
64950;SDS011;51482;47.014;7.652;2022-07-29T11:32:40;4.00;;;3.53;;
64950;SDS011;51482;47.014;7.652;2022-07-29T11:37:38;5.10;;;4.40;;
64950;SDS011;51482;47.014;7.652;2022-07-29T11:47:31;4.53;;;3.85;;
64950;SDS011;51482;47.014;7.652;2022-07-29T11:50:02;4.55;;;3.75;;
64950;SDS011;51482;47.014;7.652;2022-07-29T11:52:36;4.70;;;4.15;;
64950;SDS011;51482;47.014;7.652;2022-07-29T11:55:08;4.85;;;4.45;;
64950;SDS011;51482;47.014;7.652;2022-07-29T11:57:35;4.25;;;3.85;;
64950;SDS011;51482;47.014;7.652;2022-07-29T12:00:02;4.95;;;4.55;;
64950;SDS011;51482;47.014;7.652;2022-07-29T12:02:39;4.30;;;3.90;;
64950;SDS011;51482;47.014;7.652;2022-07-29T12:05:07;4.45;;;4.00;;
64950;SDS011;51482;47.014;7.652;2022-07-29T12:07:34;4.50;;;4.10;;
64950;SDS011;51482;47.014;7.652;2022-07-29T12:10:00;5.22;;;4.57;;
64950;SDS011;51482;47.014;7.652;2022-07-29T12:12:26;4.28;;;3.88;;
64950;SDS011;51482;47.014;7.652;2022-07-29T12:14:52;5.03;;;4.63;;
64950;SDS011;51482;47.014;7.652;2022-07-29T12:19:55;4.40;;;4.00;;
64950;SDS011;51482;47.014;7.652;2022-07-29T12:22:55;5.82;;;4.80;;
64950;SDS011;51482;47.014;7.652;2022-07-29T12:25:14;6.00;;;4.90;;
64950;SDS011;51482;47.014;7.652;2022-07-29T12:27:41;5.57;;;5.07;;
64950;SDS011;51482;47.014;7.652;2022-07-29T12:30:15;5.05;;;4.55;;
64950;SDS011;51482;47.014;7.652;2022-07-29T12:32:50;6.30;;;5.03;;
64950;SDS011;51482;47.014;7.652;2022-07-29T12:35:16;5.43;;;4.38;;
64950;SDS011;51482;47.014;7.652;2022-07-29T12:37:44;7.30;;;5.63;;
64950;SDS011;51482;47.014;7.652;2022-07-29T12:40:13;7.70;;;5.93;;
64950;SDS011;51482;47.014;7.652;2022-07-29T12:42:41;7.22;;;6.53;;
64950;SDS011;51482;47.014;7.652;2022-07-29T12:45:29;6.22;;;5.63;;
64950;SDS011;51482;47.014;7.652;2022-07-29T12:47:55;8.88;;;5.63;;
64950;SDS011;51482;47.014;7.652;2022-07-29T12:50:21;6.55;;;5.65;;
64950;SDS011;51482;47.014;7.652;2022-07-29T12:52:47;7.65;;;7.03;;
64950;SDS011;51482;47.014;7.652;2022-07-29T12:55:12;10.20;;;6.40;;
64950;SDS011;51482;47.014;7.652;2022-07-29T12:57:48;7.43;;;5.57;;
64950;SDS011;51482;47.014;7.652;2022-07-29T13:00:21;8.27;;;5.60;;
64950;SDS011;51482;47.014;7.652;2022-07-29T13:02:56;6.28;;;5.65;;
64950;SDS011;51482;47.014;7.652;2022-07-29T13:05:23;8.75;;;5.45;;
64950;SDS011;51482;47.014;7.652;2022-07-29T13:07:49;4.55;;;4.13;;
64950;SDS011;51482;47.014;7.652;2022-07-29T13:10:16;5.55;;;3.70;;
64950;SDS011;51482;47.014;7.652;2022-07-29T13:15:38;4.45;;;3.05;;
64950;SDS011;51482;47.014;7.652;2022-07-29T13:18:25;4.72;;;3.45;;
64950;SDS011;51482;47.014;7.652;2022-07-29T13:20:55;4.35;;;3.35;;
64950;SDS011;51482;47.014;7.652;2022-07-29T13:23:21;4.97;;;3.58;;
64950;SDS011;51482;47.014;7.652;2022-07-29T13:25:47;4.00;;;3.70;;
64950;SDS011;51482;47.014;7.652;2022-07-29T13:28:13;3.95;;;3.63;;
64950;SDS011;51482;47.014;7.652;2022-07-29T13:30:41;4.40;;;3.60;;
64950;SDS011;51482;47.014;7.652;2022-07-29T13:33:08;3.67;;;3.38;;
64950;SDS011;51482;47.014;7.652;2022-07-29T13:35:34;3.47;;;3.08;;
64950;SDS011;51482;47.014;7.652;2022-07-29T13:37:59;11.05;;;3.85;;
64950;SDS011;51482;47.014;7.652;2022-07-29T13:40:25;3.90;;;3.53;;
64950;SDS011;51482;47.014;7.652;2022-07-29T13:42:51;3.92;;;3.25;;
64950;SDS011;51482;47.014;7.652;2022-07-29T13:45:16;4.30;;;3.17;;
64950;SDS011;51482;47.014;7.652;2022-07-29T13:47:42;4.18;;;3.78;;
64950;SDS011;51482;47.014;7.652;2022-07-29T13:50:08;5.75;;;3.50;;
64950;SDS011;51482;47.014;7.652;2022-07-29T13:52:35;4.30;;;3.90;;
64950;SDS011;51482;47.014;7.652;2022-07-29T13:55:01;5.28;;;4.00;;
64950;SDS011;51482;47.014;7.652;2022-07-29T13:57:28;5.03;;;4.03;;
64950;SDS011;51482;47.014;7.652;2022-07-29T13:59:53;4.65;;;4.20;;
64950;SDS011;51482;47.014;7.652;2022-07-29T14:02:19;6.70;;;3.83;;
64950;SDS011;51482;47.014;7.652;2022-07-29T14:04:45;10.13;;;4.63;;
64950;SDS011;51482;47.014;7.652;2022-07-29T14:07:10;5.45;;;4.65;;
64950;SDS011;51482;47.014;7.652;2022-07-29T14:09:36;5.35;;;4.43;;
64950;SDS011;51482;47.014;7.652;2022-07-29T14:12:01;5.75;;;4.15;;
64950;SDS011;51482;47.014;7.652;2022-07-29T14:14:27;5.03;;;4.32;;
64950;SDS011;51482;47.014;7.652;2022-07-29T14:16:54;4.75;;;4.20;;
64950;SDS011;51482;47.014;7.652;2022-07-29T14:19:19;6.43;;;4.00;;
64950;SDS011;51482;47.014;7.652;2022-07-29T14:21:45;5.78;;;4.18;;
64950;SDS011;51482;47.014;7.652;2022-07-29T14:24:11;4.85;;;3.38;;
64950;SDS011;51482;47.014;7.652;2022-07-29T14:26:36;5.93;;;4.30;;
64950;SDS011;51482;47.014;7.652;2022-07-29T14:29:02;5.05;;;4.25;;
64950;SDS011;51482;47.014;7.652;2022-07-29T14:31:27;4.75;;;4.18;;
64950;SDS011;51482;47.014;7.652;2022-07-29T14:33:53;4.85;;;3.88;;
64950;SDS011;51482;47.014;7.652;2022-07-29T14:36:18;5.68;;;4.47;;
64950;SDS011;51482;47.014;7.652;2022-07-29T14:38:44;3.83;;;3.33;;
64950;SDS011;51482;47.014;7.652;2022-07-29T14:41:09;3.78;;;3.33;;
64950;SDS011;51482;47.014;7.652;2022-07-29T14:43:35;4.03;;;3.47;;
64950;SDS011;51482;47.014;7.652;2022-07-29T14:46:01;4.78;;;3.58;;
64950;SDS011;51482;47.014;7.652;2022-07-29T14:48:27;4.93;;;3.83;;
64950;SDS011;51482;47.014;7.652;2022-07-29T14:50:53;4.18;;;3.80;;
64950;SDS011;51482;47.014;7.652;2022-07-29T14:53:20;4.43;;;4.00;;
64950;SDS011;51482;47.014;7.652;2022-07-29T14:55:47;4.03;;;3.70;;
64950;SDS011;51482;47.014;7.652;2022-07-29T14:58:14;4.10;;;3.80;;
64950;SDS011;51482;47.014;7.652;2022-07-29T15:00:40;4.93;;;4.25;;
64950;SDS011;51482;47.014;7.652;2022-07-29T15:03:05;4.10;;;3.70;;
64950;SDS011;51482;47.014;7.652;2022-07-29T15:05:31;4.28;;;3.90;;
64950;SDS011;51482;47.014;7.652;2022-07-29T15:07:57;5.10;;;3.72;;
64950;SDS011;51482;47.014;7.652;2022-07-29T15:10:23;5.82;;;4.00;;
64950;SDS011;51482;47.014;7.652;2022-07-29T15:12:51;5.45;;;3.63;;
64950;SDS011;51482;47.014;7.652;2022-07-29T15:15:16;5.07;;;3.88;;
64950;SDS011;51482;47.014;7.652;2022-07-29T15:17:42;5.07;;;3.42;;
64950;SDS011;51482;47.014;7.652;2022-07-29T15:20:08;4.05;;;3.53;;
64950;SDS011;51482;47.014;7.652;2022-07-29T15:22:34;7.43;;;3.95;;
64950;SDS011;51482;47.014;7.652;2022-07-29T15:24:59;3.83;;;3.40;;
64950;SDS011;51482;47.014;7.652;2022-07-29T15:27:25;4.75;;;3.53;;
64950;SDS011;51482;47.014;7.652;2022-07-29T15:29:50;4.45;;;3.05;;
64950;SDS011;51482;47.014;7.652;2022-07-29T15:32:16;3.35;;;3.08;;
64950;SDS011;51482;47.014;7.652;2022-07-29T15:34:41;3.92;;;3.55;;